Time;durP1;ratioP1;P1;durP2;ratioP2;P2;SDS_P1;SDS_P2;PMS_P1;PMS_P2;Temp;Humidity;BMP_temperature;BMP_pressure;BME280_temperature;BME280_humidity;BME280_pressure;Samples;Min_cycle;Max_cycle;Signal;HPM_P1;HPM_P2
2023/08/02 00:02:22;;;;;;;7.25;3.67;;;16.10;99.90;;;;;;5033405;28;20045;-68
2023/08/02 00:04:49;;;;;;;7.75;3.42;;;16.20;99.90;;;;;;5033056;28;20041;-68
2023/08/02 00:07:16;;;;;;;10.82;3.80;;;16.10;99.90;;;;;;5033642;28;20057;-68
2023/08/02 00:09:43;;;;;;;8.27;3.72;;;16.10;99.90;;;;;;5033814;28;20041;-67
2023/08/02 00:12:09;;;;;;;9.10;3.83;;;16.10;99.90;;;;;;5017153;28;20048;-68
2023/08/02 00:14:36;;;;;;;8.52;3.70;;;16.10;99.90;;;;;;5033083;28;20049;-68
2023/08/02 00:17:03;;;;;;;6.03;3.50;;;16.10;99.90;;;;;;5036333;28;20087;-67
2023/08/02 00:19:29;;;;;;;7.25;3.88;;;16.10;99.90;;;;;;5036809;28;20091;-68
2023/08/02 00:21:55;;;;;;;5.40;3.45;;;16.10;99.90;;;;;;5037120;28;20465;-68
2023/08/02 00:24:22;;;;;;;7.05;3.50;;;16.10;99.90;;;;;;5036776;28;20060;-68
2023/08/02 00:26:48;;;;;;;6.40;3.88;;;16.10;99.90;;;;;;5037290;28;20094;-67
2023/08/02 00:29:15;;;;;;;10.48;3.30;;;16.20;99.90;;;;;;5036864;28;20053;-68
2023/08/02 00:31:42;;;;;;;7.78;3.47;;;16.10;99.90;;;;;;5035650;28;20057;-68
2023/08/02 00:34:09;;;;;;;6.72;3.53;;;16.10;99.90;;;;;;5016815;28;20052;-68
2023/08/02 00:36:36;;;;;;;7.00;3.38;;;16.10;99.90;;;;;;5000890;28;20045;-67
2023/08/02 00:39:03;;;;;;;8.75;3.42;;;16.10;99.90;;;;;;5016645;28;20053;-67
2023/08/02 00:41:30;;;;;;;8.45;3.58;;;16.00;99.90;;;;;;5016981;28;20398;-68
2023/08/02 00:43:57;;;;;;;8.50;3.40;;;16.20;99.90;;;;;;5031053;28;20102;-68
2023/08/02 00:46:23;;;;;;;9.90;3.83;;;16.20;99.90;;;;;;5020055;28;20385;-67
2023/08/02 00:48:49;;;;;;;7.40;3.55;;;16.10;99.90;;;;;;5036673;28;20083;-68
2023/08/02 00:51:17;;;;;;;9.23;3.45;;;16.10;99.90;;;;;;5036407;28;20051;-68
2023/08/02 00:53:45;;;;;;;11.68;3.40;;;16.10;99.90;;;;;;5036320;28;20059;-68
2023/08/02 00:56:14;;;;;;;8.48;3.28;;;16.20;99.90;;;;;;5036358;28;20110;-68
2023/08/02 00:58:40;;;;;;;12.23;3.72;;;16.10;99.90;;;;;;5036887;28;20432;-68
2023/08/02 01:01:07;;;;;;;9.00;3.75;;;16.20;99.90;;;;;;5020240;28;20049;-68
2023/08/02 01:03:39;;;;;;;7.40;3.40;;;16.20;99.90;;;;;;5035917;28;20083;-68
2023/08/02 01:06:22;;;;;;;12.40;3.67;;;16.10;99.90;;;;;;5036532;28;20088;-68
2023/08/02 01:08:57;;;;;;;11.50;3.78;;;16.10;99.90;;;;;;5036736;28;20466;-67
2023/08/02 01:11:34;;;;;;;13.52;4.20;;;16.20;99.90;;;;;;5036375;28;20470;-67
2023/08/02 01:14:04;;;;;;;14.63;4.68;;;16.20;99.90;;;;;;5016524;28;20049;-67
2023/08/02 01:16:33;;;;;;;13.32;4.40;;;16.10;99.90;;;;;;5016422;28;20053;-68
2023/08/02 01:19:00;;;;;;;9.80;3.95;;;16.00;99.90;;;;;;4999932;28;20485;-68
2023/08/02 01:21:28;;;;;;;10.63;4.88;;;16.10;99.90;;;;;;5000132;28;20049;-68
2023/08/02 01:23:54;;;;;;;13.93;4.70;;;16.10;99.90;;;;;;5035425;28;20061;-68
2023/08/02 01:26:22;;;;;;;13.85;4.43;;;16.10;99.90;;;;;;5019033;28;20064;-67
2023/08/02 01:28:53;;;;;;;14.27;4.80;;;16.10;99.90;;;;;;5035997;28;20048;-67
2023/08/02 01:31:22;;;;;;;15.45;5.07;;;16.00;99.90;;;;;;5036191;28;20418;-67
2023/08/02 01:33:55;;;;;;;14.30;4.88;;;16.20;99.90;;;;;;5019557;28;20041;-68
2023/08/02 01:36:22;;;;;;;13.25;4.80;;;16.00;99.90;;;;;;5035713;28;20053;-68
2023/08/02 01:38:51;;;;;;;11.32;3.88;;;16.10;99.90;;;;;;5035471;28;20060;-68
2023/08/02 01:41:17;;;;;;;8.43;4.35;;;16.10;99.90;;;;;;5035356;28;20396;-68
2023/08/02 01:43:45;;;;;;;13.65;4.97;;;16.10;99.90;;;;;;5018905;28;20111;-68
2023/08/02 01:46:11;;;;;;;13.98;4.57;;;16.10;99.90;;;;;;5035549;28;20044;-68
2023/08/02 01:48:37;;;;;;;12.70;4.78;;;16.00;99.90;;;;;;5035627;28;20041;-68
2023/08/02 01:51:05;;;;;;;13.90;4.72;;;15.90;99.90;;;;;;5035076;28;20053;-68
2023/08/02 01:53:31;;;;;;;15.20;4.40;;;16.00;99.90;;;;;;5035101;28;20052;-68
2023/08/02 01:55:58;;;;;;;12.45;4.60;;;15.90;99.90;;;;;;5035384;28;20059;-68
2023/08/02 01:58:24;;;;;;;14.55;4.65;;;16.00;99.90;;;;;;5019007;28;20049;-68
2023/08/02 02:00:50;;;;;;;12.10;4.97;;;15.90;99.90;;;;;;5035247;28;20060;-68
2023/08/02 02:03:16;;;;;;;10.25;4.60;;;16.00;99.90;;;;;;5035245;28;20053;-68
2023/08/02 02:05:52;;;;;;;17.75;4.60;;;16.00;99.90;;;;;;5034694;28;20454;-68
2023/08/02 02:08:18;;;;;;;12.70;4.68;;;15.90;99.90;;;;;;5019169;28;20052;-68
2023/08/02 02:10:49;;;;;;;14.07;4.38;;;15.90;99.90;;;;;;5035136;28;20098;-68
2023/08/02 02:13:18;;;;;;;12.45;4.55;;;15.90;99.90;;;;;;5034782;28;20102;-67
2023/08/02 02:15:44;;;;;;;12.48;4.75;;;15.80;99.90;;;;;;5034911;28;20409;-68
2023/08/02 02:18:11;;;;;;;12.07;4.75;;;15.90;99.90;;;;;;5035259;28;20049;-67
2023/08/02 02:20:37;;;;;;;12.95;4.32;;;15.80;99.90;;;;;;5035130;28;20053;-68
2023/08/02 02:23:05;;;;;;;11.82;4.50;;;15.80;99.90;;;;;;5035084;28;20063;-68
2023/08/02 02:25:31;;;;;;;11.70;4.28;;;15.80;99.90;;;;;;5034630;28;20385;-69
2023/08/02 02:27:57;;;;;;;15.38;4.82;;;15.70;99.90;;;;;;5034785;28;20111;-68
2023/08/02 02:30:24;;;;;;;12.07;4.47;;;15.70;99.90;;;;;;5018740;28;20053;-68
2023/08/02 02:32:50;;;;;;;13.93;5.20;;;15.70;99.90;;;;;;5034436;28;20041;-68
2023/08/02 02:35:16;;;;;;;8.65;4.47;;;15.70;99.90;;;;;;5034422;28;20481;-68
2023/08/02 02:37:43;;;;;;;12.90;4.90;;;15.60;99.90;;;;;;5034551;28;20538;-67
2023/08/02 02:40:09;;;;;;;9.85;4.75;;;15.60;99.90;;;;;;5034153;28;20055;-67
2023/08/02 02:42:43;;;;;;;9.70;4.50;;;15.50;99.90;;;;;;5017823;28;20524;-67
2023/08/02 02:45:10;;;;;;;12.35;4.80;;;15.50;99.90;;;;;;5018146;28;20055;-67
2023/08/02 02:47:37;;;;;;;10.25;5.05;;;15.50;99.90;;;;;;5034782;28;20049;-68
2023/08/02 02:50:04;;;;;;;13.07;4.95;;;15.50;99.90;;;;;;5034367;28;20052;-67
2023/08/02 02:52:32;;;;;;;11.35;5.10;;;15.50;99.90;;;;;;5034824;28;20049;-69
2023/08/02 02:54:58;;;;;;;11.43;4.70;;;15.50;99.90;;;;;;5034857;28;20167;-68
2023/08/02 02:57:24;;;;;;;11.13;5.05;;;15.40;99.90;;;;;;5035230;28;20056;-68
2023/08/02 02:59:51;;;;;;;9.93;4.72;;;15.40;99.90;;;;;;5018499;28;20517;-68
2023/08/02 03:02:17;;;;;;;11.55;4.88;;;15.40;99.90;;;;;;5017927;28;20052;-68
2023/08/02 03:04:43;;;;;;;9.90;4.85;;;15.30;99.90;;;;;;5034564;28;20052;-67
2023/08/02 03:07:10;;;;;;;10.45;5.22;;;15.30;99.90;;;;;;5034502;28;20044;-68
2023/08/02 03:09:36;;;;;;;12.27;5.13;;;15.30;99.90;;;;;;5034550;28;20048;-67
2023/08/02 03:12:03;;;;;;;13.13;5.30;;;15.30;99.90;;;;;;5031344;28;20111;-67
2023/08/02 03:14:29;;;;;;;10.13;5.70;;;15.20;99.90;;;;;;5014291;28;20053;-68
2023/08/02 03:16:55;;;;;;;12.20;5.22;;;15.20;99.90;;;;;;4998684;28;20574;-67
2023/08/02 03:19:22;;;;;;;14.05;5.00;;;15.10;99.90;;;;;;5014729;28;20153;-68
2023/08/02 03:21:48;;;;;;;11.75;5.47;;;15.10;99.90;;;;;;5015236;28;20057;-67
2023/08/02 03:24:14;;;;;;;8.80;4.82;;;15.10;99.90;;;;;;5014145;28;20063;-67
2023/08/02 03:26:40;;;;;;;11.20;5.10;;;15.10;99.90;;;;;;5014786;28;20106;-67
2023/08/02 03:29:06;;;;;;;12.68;5.03;;;15.10;99.90;;;;;;4998230;28;20049;-68
2023/08/02 03:31:34;;;;;;;10.80;5.40;;;15.10;99.90;;;;;;5014598;28;20060;-68
2023/08/02 03:34:00;;;;;;;8.10;4.82;;;15.00;99.90;;;;;;5034159;28;20052;-68
2023/08/02 03:36:26;;;;;;;8.85;5.15;;;15.10;99.90;;;;;;5034436;28;20049;-67
2023/08/02 03:38:53;;;;;;;10.13;5.07;;;15.00;99.90;;;;;;5034002;28;20052;-68
2023/08/02 03:41:19;;;;;;;9.75;5.10;;;15.00;99.90;;;;;;5017727;28;20052;-67
2023/08/02 03:43:47;;;;;;;12.57;5.65;;;14.90;99.90;;;;;;5034085;28;20519;-68
2023/08/02 03:46:13;;;;;;;10.20;5.15;;;15.00;99.90;;;;;;5034072;28;20053;-68
2023/08/02 03:48:41;;;;;;;8.60;5.10;;;15.00;99.90;;;;;;5034672;28;20048;-70
2023/08/02 03:51:07;;;;;;;13.32;5.43;;;15.10;99.90;;;;;;5020629;28;20511;-67
2023/08/02 03:53:33;;;;;;;9.30;5.07;;;14.90;99.90;;;;;;5037697;28;20096;-68
2023/08/02 03:56:00;;;;;;;11.70;5.53;;;15.00;99.90;;;;;;5037770;28;20051;-68
2023/08/02 03:58:26;;;;;;;10.43;5.45;;;14.90;99.90;;;;;;5037912;28;20045;-68
2023/08/02 04:00:52;;;;;;;12.48;5.38;;;15.00;99.90;;;;;;5038458;28;20436;-67
2023/08/02 04:03:20;;;;;;;10.82;5.82;;;15.00;99.90;;;;;;5037768;28;20049;-68
2023/08/02 04:05:47;;;;;;;12.25;6.18;;;15.00;99.90;;;;;;5022788;28;20071;-68
2023/08/02 04:08:14;;;;;;;9.45;5.30;;;15.00;99.90;;;;;;5025489;28;20484;-67
2023/08/02 04:10:40;;;;;;;10.93;5.32;;;15.00;99.90;;;;;;5037785;28;20107;-67
2023/08/02 04:13:06;;;;;;;9.95;5.78;;;15.00;99.90;;;;;;5036516;28;20048;-67
2023/08/02 04:15:34;;;;;;;12.73;6.05;;;15.00;99.90;;;;;;5037452;28;20136;-68
2023/08/02 04:18:01;;;;;;;10.40;5.20;;;15.00;99.90;;;;;;5037761;28;20056;-67
2023/08/02 04:20:28;;;;;;;12.27;5.75;;;15.00;99.90;;;;;;5037612;28;20439;-68
2023/08/02 04:22:54;;;;;;;12.18;6.10;;;15.00;99.90;;;;;;5021134;28;20049;-68
2023/08/02 04:25:20;;;;;;;15.10;6.50;;;14.90;99.90;;;;;;5037662;28;20048;-68
2023/08/02 04:27:46;;;;;;;11.73;5.82;;;14.90;99.90;;;;;;5038287;28;20378;-67
2023/08/02 04:30:13;;;;;;;12.07;5.22;;;14.90;99.90;;;;;;5037352;28;20110;-68
2023/08/02 04:32:39;;;;;;;14.40;5.60;;;14.90;99.90;;;;;;5037343;28;20048;-67
2023/08/02 04:35:06;;;;;;;11.30;5.38;;;14.80;99.90;;;;;;5020772;28;20060;-67
2023/08/02 04:37:33;;;;;;;13.82;5.97;;;14.80;99.90;;;;;;5037671;28;20106;-67
2023/08/02 04:39:59;;;;;;;10.45;5.28;;;14.90;99.90;;;;;;5021361;28;20056;-67
2023/08/02 04:42:26;;;;;;;11.15;5.78;;;14.80;99.90;;;;;;5031619;28;20049;-67
2023/08/02 04:44:52;;;;;;;11.40;5.70;;;14.90;99.90;;;;;;5000930;28;20045;-68
2023/08/02 04:47:18;;;;;;;11.98;5.40;;;14.90;99.90;;;;;;5017128;28;20041;-67
2023/08/02 04:49:48;;;;;;;12.98;5.55;;;15.00;99.90;;;;;;5000666;28;20041;-66
2023/08/02 04:52:14;;;;;;;8.75;5.25;;;14.90;99.90;;;;;;5012746;28;20056;-67
2023/08/02 04:54:40;;;;;;;14.32;6.28;;;14.90;99.90;;;;;;4997000;28;20049;-68
2023/08/02 04:57:06;;;;;;;11.45;5.40;;;14.90;99.90;;;;;;4997363;28;20049;-68
2023/08/02 04:59:34;;;;;;;8.38;5.78;;;14.90;99.90;;;;;;4980624;28;20060;-68
2023/08/02 05:02:00;;;;;;;10.85;5.20;;;15.00;99.90;;;;;;4998152;28;20502;-68
2023/08/02 05:04:27;;;;;;;12.90;6.05;;;15.00;99.90;;;;;;4999810;28;20053;-67
2023/08/02 05:06:54;;;;;;;13.88;6.20;;;15.00;99.90;;;;;;5015823;28;20041;-68
2023/08/02 05:09:26;;;;;;;11.30;5.78;;;15.10;99.90;;;;;;5025193;28;20355;-68
2023/08/02 05:11:52;;;;;;;9.60;5.20;;;15.10;99.90;;;;;;5024280;28;20462;-68
2023/08/02 05:14:23;;;;;;;11.73;5.57;;;15.10;99.90;;;;;;5024490;28;20362;-68
2023/08/02 05:16:49;;;;;;;9.77;6.15;;;15.20;99.90;;;;;;5010117;28;20057;-68
2023/08/02 05:19:16;;;;;;;10.63;5.38;;;15.20;99.90;;;;;;5044135;28;20045;-68
2023/08/02 05:21:42;;;;;;;9.02;6.00;;;15.30;99.90;;;;;;5021436;28;20053;-68
2023/08/02 05:24:08;;;;;;;10.25;5.90;;;15.40;99.90;;;;;;4999001;28;20049;-68
2023/08/02 05:26:34;;;;;;;13.45;6.20;;;15.40;99.90;;;;;;5013268;28;20057;-68
2023/08/02 05:29:01;;;;;;;10.30;5.45;;;15.40;99.90;;;;;;5015777;28;20517;-68
2023/08/02 05:31:27;;;;;;;9.68;5.57;;;15.40;99.90;;;;;;5014176;28;20057;-66
2023/08/02 05:33:53;;;;;;;10.63;5.68;;;15.50;99.90;;;;;;5007960;28;20045;-68
2023/08/02 05:36:21;;;;;;;12.80;5.95;;;15.40;99.90;;;;;;5015098;28;20049;-68
2023/08/02 05:38:47;;;;;;;7.95;5.50;;;15.50;99.90;;;;;;5012266;28;20254;-68
2023/08/02 05:41:14;;;;;;;12.30;5.57;;;15.60;99.90;;;;;;4999735;28;20052;-69
2023/08/02 05:43:44;;;;;;;11.23;5.78;;;15.60;99.90;;;;;;5031110;28;20055;-68
2023/08/02 05:46:11;;;;;;;10.35;5.75;;;15.60;99.90;;;;;;5009206;28;20055;-68
2023/08/02 05:48:37;;;;;;;9.25;5.28;;;15.70;99.90;;;;;;5005610;28;20056;-67
2023/08/02 05:51:05;;;;;;;12.65;6.45;;;15.70;99.90;;;;;;5024188;28;20064;-67
2023/08/02 05:53:31;;;;;;;10.40;5.75;;;15.70;99.90;;;;;;5015423;28;20061;-68
2023/08/02 05:55:58;;;;;;;13.43;5.57;;;15.70;99.90;;;;;;5015920;28;20045;-68
2023/08/02 05:58:25;;;;;;;9.63;5.65;;;15.90;99.90;;;;;;5008633;28;20088;-67
2023/08/02 06:00:52;;;;;;;8.65;4.85;;;15.80;99.90;;;;;;5018806;28;20072;-67
2023/08/02 06:03:18;;;;;;;11.20;6.07;;;15.90;99.90;;;;;;5016733;28;20054;-67
2023/08/02 06:05:44;;;;;;;9.88;5.90;;;16.00;99.90;;;;;;5016760;28;20045;-67
2023/08/02 06:08:10;;;;;;;7.88;4.70;;;16.10;99.90;;;;;;5026146;28;20050;-68
2023/08/02 06:10:37;;;;;;;10.07;5.55;;;16.10;99.90;;;;;;5021772;28;20055;-68
2023/08/02 06:13:04;;;;;;;12.50;5.38;;;16.10;99.90;;;;;;5024202;28;20122;-67
2023/08/02 06:15:30;;;;;;;7.85;4.80;;;16.20;99.90;;;;;;5026453;28;20045;-68
2023/08/02 06:17:56;;;;;;;9.68;5.15;;;16.10;99.90;;;;;;5025184;28;20061;-67
2023/08/02 06:20:24;;;;;;;8.65;4.80;;;16.00;99.90;;;;;;5024318;28;20045;-68
2023/08/02 06:22:50;;;;;;;8.88;4.40;;;16.00;99.90;;;;;;5020000;28;20421;-68
2023/08/02 06:25:16;;;;;;;8.38;4.80;;;16.00;99.90;;;;;;5029243;28;20072;-67
2023/08/02 06:27:42;;;;;;;10.00;5.25;;;16.10;99.90;;;;;;5023031;28;20443;-67
2023/08/02 06:30:09;;;;;;;12.23;4.60;;;16.00;99.90;;;;;;5025472;28;20477;-67
2023/08/02 06:32:35;;;;;;;10.05;4.88;;;16.00;99.90;;;;;;5005967;28;20053;-66
2023/08/02 06:35:04;;;;;;;7.97;4.50;;;16.00;99.90;;;;;;5022892;28;20048;-66
2023/08/02 06:37:31;;;;;;;11.85;5.10;;;16.00;99.90;;;;;;5024262;28;20107;-66
2023/08/02 06:40:04;;;;;;;9.00;4.53;;;16.00;99.90;;;;;;5042592;28;20620;-67
2023/08/02 06:42:30;;;;;;;9.25;4.47;;;15.90;99.90;;;;;;5022229;28;20126;-67
2023/08/02 06:44:57;;;;;;;6.68;4.38;;;16.00;99.90;;;;;;5012759;28;20478;-67
2023/08/02 06:47:26;;;;;;;8.25;3.92;;;16.00;99.90;;;;;;5015614;28;20423;-67
2023/08/02 06:49:52;;;;;;;7.22;4.05;;;15.90;99.90;;;;;;5025383;28;20382;-67
2023/08/02 06:52:19;;;;;;;8.43;4.25;;;15.90;99.90;;;;;;5048078;28;20049;-67
2023/08/02 06:54:45;;;;;;;8.63;4.07;;;15.90;99.90;;;;;;5014710;28;20053;-68
2023/08/02 06:57:11;;;;;;;7.38;3.97;;;15.90;99.90;;;;;;5015339;28;20057;-67
2023/08/02 06:59:38;;;;;;;6.53;3.60;;;15.80;99.90;;;;;;5015517;28;20470;-67
2023/08/02 07:02:06;;;;;;;6.85;3.88;;;15.80;99.90;;;;;;5015459;28;20053;-66
2023/08/02 07:04:32;;;;;;;11.02;4.60;;;15.90;99.90;;;;;;4999433;28;20478;-66
2023/08/02 07:06:58;;;;;;;7.63;3.63;;;15.70;99.90;;;;;;5015553;28;20377;-66
2023/08/02 07:09:27;;;;;;;6.15;3.50;;;15.80;99.90;;;;;;5015126;28;20482;-66
2023/08/02 07:11:53;;;;;;;7.95;3.92;;;15.80;99.90;;;;;;5032808;28;20112;-66
2023/08/02 07:14:20;;;;;;;10.02;3.75;;;15.70;99.90;;;;;;5016674;28;20060;-66
2023/08/02 07:16:46;;;;;;;8.88;4.13;;;15.60;99.90;;;;;;5031318;28;20049;-67
2023/08/02 07:19:12;;;;;;;7.10;4.20;;;15.80;99.90;;;;;;5015196;28;20489;-67
2023/08/02 07:21:40;;;;;;;7.63;4.00;;;15.70;99.90;;;;;;5015784;28;20053;-66
2023/08/02 07:24:06;;;;;;;8.80;4.35;;;15.70;99.90;;;;;;5033318;28;20049;-66
2023/08/02 07:26:34;;;;;;;9.13;4.32;;;15.70;99.90;;;;;;5038900;28;20060;-66
2023/08/02 07:29:00;;;;;;;9.60;4.63;;;15.70;99.90;;;;;;5038745;28;20063;-66
2023/08/02 07:31:27;;;;;;;9.77;4.28;;;15.70;99.90;;;;;;5057009;28;20110;-65
2023/08/02 07:33:53;;;;;;;8.90;4.25;;;15.50;99.90;;;;;;5040134;28;20049;-65
2023/08/02 07:36:20;;;;;;;8.23;4.63;;;15.60;99.90;;;;;;5018587;28;20085;-66
2023/08/02 07:38:49;;;;;;;10.77;4.57;;;15.60;99.90;;;;;;5029828;28;20488;-66
2023/08/02 07:41:15;;;;;;;8.57;4.43;;;15.60;99.90;;;;;;5043485;28;20045;-68
2023/08/02 07:43:42;;;;;;;10.00;4.68;;;15.50;99.90;;;;;;5039151;28;20067;-67
2023/08/02 07:46:18;;;;;;;10.48;5.47;;;15.50;99.90;;;;;;5038955;28;20056;-66
2023/08/02 07:48:45;;;;;;;7.88;4.75;;;15.50;99.90;;;;;;5038725;28;20040;-68
2023/08/02 07:51:11;;;;;;;8.95;4.55;;;15.50;99.90;;;;;;5038892;28;20437;-67
2023/08/02 07:53:37;;;;;;;8.98;4.93;;;15.50;99.90;;;;;;5038889;28;20052;-65
2023/08/02 07:56:04;;;;;;;9.27;4.88;;;15.50;99.90;;;;;;5038619;28;20057;-66
2023/08/02 07:58:30;;;;;;;10.18;4.85;;;15.40;99.90;;;;;;5038449;28;20725;-66
2023/08/02 08:01:03;;;;;;;8.50;4.50;;;15.50;99.90;;;;;;5056546;28;20045;-66
2023/08/02 08:03:29;;;;;;;10.90;4.80;;;15.40;99.90;;;;;;5038834;28;20044;-66
2023/08/02 08:05:56;;;;;;;9.00;4.55;;;15.60;99.90;;;;;;5038249;28;20041;-67
2023/08/02 08:08:23;;;;;;;8.15;4.45;;;15.50;99.90;;;;;;5038140;28;20462;-67
2023/08/02 08:10:51;;;;;;;9.18;5.35;;;15.60;99.90;;;;;;5056108;28;20111;-65
2023/08/02 08:13:18;;;;;;;9.70;4.80;;;15.60;99.90;;;;;;5038332;28;20045;-66
2023/08/02 08:15:44;;;;;;;9.15;5.35;;;15.50;99.90;;;;;;5038776;28;20370;-66
2023/08/02 08:18:10;;;;;;;10.30;5.32;;;15.50;99.90;;;;;;5038350;28;20083;-67
2023/08/02 08:20:37;;;;;;;9.52;4.85;;;15.60;99.90;;;;;;5038244;28;20053;-67
2023/08/02 08:23:03;;;;;;;8.30;4.47;;;15.80;99.90;;;;;;5038344;28;20088;-67
2023/08/02 08:25:31;;;;;;;8.88;4.72;;;15.70;99.90;;;;;;5038028;28;20056;-67
2023/08/02 08:27:57;;;;;;;10.13;5.07;;;15.70;99.90;;;;;;5037637;28;20072;-67
2023/08/02 08:30:24;;;;;;;12.98;5.20;;;15.90;99.90;;;;;;5037833;28;20052;-68
2023/08/02 08:32:51;;;;;;;9.90;5.15;;;15.80;99.90;;;;;;5038328;28;20053;-67
2023/08/02 08:35:18;;;;;;;8.85;5.22;;;15.80;99.90;;;;;;5038500;28;20322;-67
2023/08/02 08:37:49;;;;;;;7.97;5.50;;;15.90;99.90;;;;;;5032963;28;20060;-67
2023/08/02 08:40:20;;;;;;;11.13;5.82;;;15.80;99.90;;;;;;5002037;28;20054;-67
2023/08/02 08:42:48;;;;;;;9.15;5.93;;;15.80;99.90;;;;;;5034523;28;20362;-66
2023/08/02 08:45:17;;;;;;;9.63;6.60;;;15.90;99.90;;;;;;5017998;28;20484;-67
2023/08/02 08:47:45;;;;;;;9.15;6.53;;;15.90;99.90;;;;;;5017463;28;20050;-69
2023/08/02 08:50:12;;;;;;;10.32;6.20;;;15.90;99.90;;;;;;5017904;28;20459;-68
2023/08/02 08:52:41;;;;;;;10.40;6.50;;;15.90;99.90;;;;;;5001591;28;20427;-68
2023/08/02 08:55:08;;;;;;;11.07;6.82;;;15.90;99.90;;;;;;5001584;28;20045;-68
2023/08/02 08:57:35;;;;;;;10.88;7.10;;;15.90;99.90;;;;;;5017753;28;20394;-67
2023/08/02 09:00:05;;;;;;;9.50;7.32;;;15.80;99.90;;;;;;5017838;28;20053;-67
2023/08/02 09:02:32;;;;;;;9.15;6.65;;;15.80;99.90;;;;;;5017229;28;20053;-67
2023/08/02 09:05:01;;;;;;;8.23;6.35;;;15.90;99.90;;;;;;5017528;28;20049;-67
2023/08/02 09:07:27;;;;;;;10.27;6.65;;;15.90;99.90;;;;;;5017036;28;20052;-67
2023/08/02 09:09:54;;;;;;;12.05;7.10;;;16.00;99.90;;;;;;5017623;28;20132;-67
2023/08/02 09:12:20;;;;;;;10.40;6.13;;;16.10;99.90;;;;;;5033941;28;20134;-68
2023/08/02 09:15:08;;;;;;;8.82;6.38;;;16.00;99.90;;;;;;5017503;28;20057;-69
2023/08/02 09:17:51;;;;;;;8.52;6.43;;;16.00;99.90;;;;;;5004280;28;20053;-69
2023/08/02 09:20:20;;;;;;;9.25;6.15;;;16.00;99.90;;;;;;5027002;28;20113;-69
2023/08/02 09:22:49;;;;;;;8.50;6.40;;;16.20;99.90;;;;;;5014568;28;20057;-68
2023/08/02 09:25:24;;;;;;;8.90;5.88;;;16.00;99.90;;;;;;5016845;28;20041;-68
2023/08/02 09:27:52;;;;;;;8.35;6.13;;;16.00;99.90;;;;;;5014046;28;20103;-68
2023/08/02 09:30:27;;;;;;;9.15;6.43;;;16.10;99.90;;;;;;5016547;28;20048;-69
2023/08/02 09:33:01;;;;;;;7.45;5.78;;;16.30;99.90;;;;;;5047822;28;20060;-66
2023/08/02 09:35:27;;;;;;;7.65;5.57;;;16.30;99.90;;;;;;5016774;28;20103;-66
2023/08/02 09:37:55;;;;;;;7.65;5.47;;;16.30;99.90;;;;;;5016528;28;20053;-67
2023/08/02 09:40:35;;;;;;;8.70;5.72;;;16.40;99.90;;;;;;5030062;28;20053;-67
2023/08/02 09:43:02;;;;;;;7.10;5.35;;;16.20;99.90;;;;;;5004093;28;20060;-66
2023/08/02 09:45:33;;;;;;;6.07;4.90;;;16.30;99.90;;;;;;5036561;28;20495;-66
2023/08/02 09:48:00;;;;;;;5.80;4.45;;;16.30;99.90;;;;;;5035026;28;20045;-67
2023/08/02 09:50:27;;;;;;;6.60;4.53;;;16.30;99.90;;;;;;5036190;28;20057;-67
2023/08/02 09:52:55;;;;;;;5.65;4.50;;;16.40;99.90;;;;;;5036340;28;20053;-66
2023/08/02 09:55:21;;;;;;;7.50;5.00;;;16.40;99.90;;;;;;5019840;28;20380;-66
2023/08/02 09:57:49;;;;;;;6.35;4.43;;;16.50;99.90;;;;;;5036034;28;20118;-66
2023/08/02 10:00:17;;;;;;;6.05;4.20;;;16.50;99.90;;;;;;5036406;28;20045;-67
2023/08/02 10:02:46;;;;;;;4.72;3.72;;;16.40;99.90;;;;;;5036102;28;20053;-68
2023/08/02 10:05:14;;;;;;;5.00;4.00;;;16.50;99.90;;;;;;5020057;28;20115;-68
2023/08/02 10:07:46;;;;;;;4.28;3.47;;;16.50;99.90;;;;;;5035763;28;20090;-67
2023/08/02 10:10:21;;;;;;;4.47;3.80;;;16.50;99.90;;;;;;5036283;28;20390;-67
2023/08/02 10:13:18;;;;;;;4.60;4.07;;;16.70;99.90;;;;;;5035820;28;20427;-68
2023/08/02 10:15:49;;;;;;;5.13;3.58;;;16.60;99.90;;;;;;5036278;28;20082;-67
2023/08/02 10:18:17;;;;;;;3.85;3.35;;;16.70;99.90;;;;;;5036122;28;20049;-67
2023/08/02 10:20:48;;;;;;;3.13;2.60;;;16.70;99.90;;;;;;5019725;28;20056;-68
2023/08/02 10:23:15;;;;;;;4.00;3.60;;;16.70;99.90;;;;;;5003312;28;20045;-67
2023/08/02 10:25:42;;;;;;;3.78;3.15;;;16.80;99.90;;;;;;5036387;28;20378;-67
2023/08/02 10:28:09;;;;;;;5.57;3.15;;;16.90;99.90;;;;;;5035769;28;20048;-67
2023/08/02 10:30:36;;;;;;;4.00;3.40;;;17.00;99.90;;;;;;5019724;28;20045;-66
2023/08/02 10:33:32;;;;;;;4.55;3.40;;;17.10;99.90;;;;;;5035577;28;20049;-66
2023/08/02 10:36:06;;;;;;;4.78;3.40;;;17.20;99.90;;;;;;5015705;28;20071;-67
2023/08/02 10:38:39;;;;;;;3.58;3.03;;;17.30;99.90;;;;;;5035331;28;20065;-67
2023/08/02 10:41:08;;;;;;;4.55;3.13;;;17.30;99.90;;;;;;5019612;28;20052;-67
2023/08/02 10:43:54;;;;;;;3.95;3.20;;;17.30;99.90;;;;;;5035697;28;20436;-67
2023/08/02 10:46:26;;;;;;;3.10;2.70;;;17.20;99.90;;;;;;5035664;28;20053;-67
2023/08/02 10:48:55;;;;;;;3.55;3.00;;;17.40;99.90;;;;;;5035312;28;20154;-67
2023/08/02 10:51:42;;;;;;;3.50;2.85;;;17.20;99.90;;;;;;5021315;28;20049;-66
2023/08/02 10:54:23;;;;;;;3.58;3.22;;;17.20;99.90;;;;;;5035850;28;20048;-67
2023/08/02 10:57:09;;;;;;;4.53;3.53;;;17.50;99.90;;;;;;5035168;28;20060;-67
2023/08/02 10:59:40;;;;;;;3.58;3.28;;;17.60;99.90;;;;;;5052139;28;20460;-67
2023/08/02 11:02:09;;;;;;;3.80;3.40;;;17.80;99.90;;;;;;5018485;28;20128;-67
2023/08/02 11:04:37;;;;;;;4.03;3.63;;;18.00;99.90;;;;;;5016128;28;20484;-66
2023/08/02 11:07:18;;;;;;;3.80;3.40;;;18.10;99.90;;;;;;5015043;28;20046;-66
2023/08/02 11:09:46;;;;;;;3.70;3.40;;;18.20;99.90;;;;;;4999025;28;20048;-67
2023/08/02 11:12:17;;;;;;;4.47;3.92;;;18.50;99.90;;;;;;5032656;28;20059;-68
2023/08/02 11:14:46;;;;;;;4.13;3.72;;;18.60;99.90;;;;;;5015605;28;20401;-69
2023/08/02 11:17:19;;;;;;;4.32;3.92;;;18.80;99.90;;;;;;5015133;28;20045;-68
2023/08/02 11:19:48;;;;;;;4.53;3.85;;;19.00;99.90;;;;;;5015562;28;20054;-68
2023/08/02 11:22:18;;;;;;;4.68;4.10;;;19.20;99.90;;;;;;4999966;28;20060;-69
2023/08/02 11:24:52;;;;;;;3.72;3.33;;;19.70;99.90;;;;;;5018973;28;20049;-68
2023/08/02 11:27:24;;;;;;;5.03;3.70;;;19.60;99.90;;;;;;5018257;28;20428;-68
2023/08/02 11:30:06;;;;;;;3.42;3.13;;;19.80;99.90;;;;;;5019081;28;20115;-67
2023/08/02 11:32:34;;;;;;;3.38;3.08;;;20.00;99.90;;;;;;5031884;28;20088;-68
2023/08/02 11:35:00;;;;;;;3.90;3.10;;;20.20;99.90;;;;;;5015587;28;20064;-67
2023/08/02 11:37:28;;;;;;;3.58;3.20;;;20.40;99.90;;;;;;4998388;28;20103;-68
2023/08/02 11:39:55;;;;;;;3.30;3.00;;;20.50;99.90;;;;;;4999114;28;20049;-68
2023/08/02 11:42:25;;;;;;;3.13;2.83;;;20.80;99.90;;;;;;5017016;28;20049;-69
2023/08/02 11:44:51;;;;;;;4.13;3.42;;;20.80;99.90;;;;;;5018667;28;20052;-68
2023/08/02 11:47:19;;;;;;;3.15;2.53;;;20.90;99.90;;;;;;5018250;28;20045;-67
2023/08/02 11:49:51;;;;;;;3.13;2.83;;;20.80;99.90;;;;;;5035041;28;20347;-68
2023/08/02 11:52:30;;;;;;;3.72;3.35;;;20.70;99.90;;;;;;5033784;28;20049;-68
2023/08/02 11:54:57;;;;;;;3.15;2.85;;;21.00;99.90;;;;;;5030957;28;20049;-68
2023/08/02 11:57:24;;;;;;;2.90;2.60;;;21.10;99.90;;;;;;5034491;28;20548;-67
2023/08/02 11:59:53;;;;;;;3.72;3.40;;;21.30;99.90;;;;;;5000286;28;20381;-67
2023/08/02 12:02:30;;;;;;;4.00;2.70;;;21.30;99.90;;;;;;5016332;28;20482;-68
2023/08/02 12:05:05;;;;;;;3.13;2.83;;;21.60;99.90;;;;;;5027997;28;20464;-67
2023/08/02 12:07:33;;;;;;;3.70;3.40;;;21.50;99.90;;;;;;5034218;28;20049;-68
2023/08/02 12:10:04;;;;;;;3.85;2.90;;;21.60;99.90;;;;;;5035170;28;20454;-68
2023/08/02 12:12:32;;;;;;;3.40;3.10;;;21.60;99.90;;;;;;5035156;28;20361;-68
2023/08/02 12:15:10;;;;;;;3.20;2.70;;;21.60;99.90;;;;;;5018692;28;20060;-67
2023/08/02 12:17:36;;;;;;;4.03;3.00;;;21.60;99.90;;;;;;5029607;28;20053;-68
2023/08/02 12:20:05;;;;;;;3.42;2.60;;;21.90;99.90;;;;;;5022137;28;20056;-67
2023/08/02 12:22:49;;;;;;;2.88;2.58;;;21.90;99.90;;;;;;5054371;28;20057;-68
2023/08/02 12:25:16;;;;;;;4.60;3.17;;;21.90;99.90;;;;;;5037746;28;20099;-68
2023/08/02 12:27:42;;;;;;;3.20;2.60;;;22.00;99.90;;;;;;5036815;28;20106;-69
2023/08/02 12:30:11;;;;;;;3.90;2.60;;;21.90;99.90;;;;;;5038802;28;20052;-68
2023/08/02 12:32:37;;;;;;;2.90;2.42;;;21.80;99.90;;;;;;5018190;28;20099;-67
2023/08/02 12:35:07;;;;;;;4.18;2.47;;;21.70;99.90;;;;;;5018826;28;20477;-67
2023/08/02 12:37:34;;;;;;;3.95;2.60;;;21.60;99.90;;;;;;5020152;28;20053;-68
2023/08/02 12:40:00;;;;;;;3.10;2.55;;;21.50;99.90;;;;;;5038275;28;20374;-68
2023/08/02 12:42:26;;;;;;;3.80;2.80;;;21.30;99.90;;;;;;5019646;28;20454;-67
2023/08/02 12:44:53;;;;;;;4.07;2.92;;;21.40;99.90;;;;;;5001974;28;20057;-67
2023/08/02 12:47:20;;;;;;;3.83;3.10;;;21.40;99.90;;;;;;5001761;28;20045;-67
2023/08/02 12:49:46;;;;;;;3.20;2.90;;;21.60;99.90;;;;;;5018330;28;20107;-68